Time;durP1;ratioP1;P1;durP2;ratioP2;P2;SDS_P1;SDS_P2;PMS_P1;PMS_P2;Temp;Humidity;BMP_temperature;BMP_pressure;BME280_temperature;BME280_humidity;BME280_pressure;Samples;Min_cycle;Max_cycle;Signal;HPM_P1;HPM_P2
2024/01/01 00:00:21;;;;;;;1999.90;999.90;;;2.50;94.20;;;;;;5045192;28;20062;-81
2024/01/01 00:02:46;;;;;;;1999.90;999.90;;;2.50;94.30;;;;;;5044842;28;20048;-80
2024/01/01 00:05:21;;;;;;;1999.90;999.90;;;2.50;94.30;;;;;;5040928;28;20033;-90
2024/01/01 00:07:50;;;;;;;1999.90;999.90;;;2.50;94.10;;;;;;5041851;28;20570;-89
2024/01/01 00:10:19;;;;;;;1999.90;999.90;;;2.60;93.90;;;;;;5044598;28;20029;-87
2024/01/01 00:12:46;;;;;;;1999.90;999.90;;;2.60;93.90;;;;;;5045294;28;20547;-87
2024/01/01 00:15:12;;;;;;;1999.90;999.90;;;2.50;94.00;;;;;;5045210;28;20107;-89
2024/01/01 00:17:38;;;;;;;1999.90;999.90;;;2.40;94.10;;;;;;5039313;28;20123;-91
2024/01/01 00:20:05;;;;;;;1999.90;999.90;;;2.30;94.20;;;;;;5046769;28;20120;-87
2024/01/01 00:22:31;;;;;;;1999.90;999.90;;;2.20;94.50;;;;;;5045615;28;20044;-88
2024/01/01 00:24:57;;;;;;;1999.90;999.90;;;2.30;94.80;;;;;;5044226;28;20040;-89
2024/01/01 00:27:24;;;;;;;1999.90;999.90;;;2.30;94.90;;;;;;5044371;28;20029;-85
2024/01/01 00:29:50;;;;;;;1999.90;999.90;;;2.30;95.40;;;;;;5043026;28;20044;-85
2024/01/01 00:32:16;;;;;;;1999.90;999.90;;;2.30;95.30;;;;;;5039865;28;20112;-86
2024/01/01 00:34:42;;;;;;;1999.90;999.90;;;2.30;95.40;;;;;;5056356;28;20034;-85
2024/01/01 00:37:08;;;;;;;1999.90;999.90;;;2.30;95.40;;;;;;5044777;28;20145;-87
2024/01/01 00:39:34;;;;;;;1999.90;999.90;;;2.20;95.40;;;;;;5041263;28;20063;-87
2024/01/01 00:42:00;;;;;;;1999.90;999.90;;;2.20;95.70;;;;;;5040707;28;20459;-86
2024/01/01 00:44:26;;;;;;;1999.90;999.90;;;2.20;95.50;;;;;;5050878;28;20546;-84
2024/01/01 00:46:52;;;;;;;1999.90;999.90;;;2.20;95.80;;;;;;5041444;28;20708;-88
2024/01/01 00:49:18;;;;;;;1999.90;999.90;;;2.20;95.80;;;;;;5042094;28;20033;-83
2024/01/01 00:51:44;;;;;;;1999.90;999.90;;;2.20;95.80;;;;;;5043413;28;20102;-88
2024/01/01 00:54:11;;;;;;;1999.90;999.90;;;2.10;95.90;;;;;;5043481;28;20056;-84
2024/01/01 00:56:36;;;;;;;1999.90;999.90;;;2.10;95.90;;;;;;5042197;28;20028;-88
2024/01/01 00:59:04;;;;;;;1999.90;999.90;;;2.00;95.80;;;;;;5045777;28;20041;-88
2024/01/01 01:01:29;;;;;;;1999.90;999.90;;;2.10;95.80;;;;;;5045746;28;20080;-83
2024/01/01 01:03:56;;;;;;;1999.90;999.90;;;2.10;96.00;;;;;;5042995;28;20041;-89
2024/01/01 01:06:22;;;;;;;1999.90;999.90;;;2.10;96.10;;;;;;5041188;28;20052;-83
2024/01/01 01:08:47;;;;;;;1999.90;999.90;;;2.10;95.90;;;;;;5041402;28;20487;-82
2024/01/01 01:11:16;;;;;;;1999.90;999.90;;;2.00;95.90;;;;;;5042307;28;20017;-84
2024/01/01 01:13:41;;;;;;;1999.90;999.90;;;1.80;95.80;;;;;;5043066;28;20152;-87
2024/01/01 01:16:09;;;;;;;1999.90;999.90;;;1.70;95.80;;;;;;5042822;28;20199;-84
2024/01/01 01:18:34;;;;;;;1999.90;999.90;;;1.60;96.00;;;;;;5043944;28;20047;-87
2024/01/01 01:21:00;;;;;;;1999.90;999.90;;;1.50;96.60;;;;;;5043782;28;20024;-85
2024/01/01 01:23:28;;;;;;;1999.90;999.90;;;1.60;96.90;;;;;;5043105;28;20045;-83
2024/01/01 01:25:54;;;;;;;1999.90;999.90;;;1.50;96.80;;;;;;5047314;28;20037;-87
2024/01/01 01:28:25;;;;;;;1999.90;999.90;;;1.50;96.90;;;;;;5043611;28;20036;-83
2024/01/01 01:30:51;;;;;;;1999.90;999.90;;;1.50;97.20;;;;;;5043842;28;20068;-85
2024/01/01 01:33:17;;;;;;;1999.90;999.90;;;1.60;97.20;;;;;;5040753;28;20372;-86
2024/01/01 01:35:43;;;;;;;1999.90;999.90;;;1.60;97.20;;;;;;5044928;28;20642;-85
2024/01/01 01:38:08;;;;;;;1999.90;999.90;;;1.60;97.10;;;;;;5041567;28;20051;-87
2024/01/01 01:40:34;;;;;;;1999.90;999.90;;;1.60;97.10;;;;;;5058826;28;20053;-83
2024/01/01 01:43:00;;;;;;;1999.90;999.90;;;1.70;96.90;;;;;;5042796;28;20403;-86
2024/01/01 01:45:26;;;;;;;1999.90;999.90;;;1.80;96.80;;;;;;5041252;28;20037;-86
2024/01/01 01:47:52;;;;;;;1999.90;999.90;;;1.70;96.80;;;;;;5045495;28;20072;-89
2024/01/01 01:50:20;;;;;;;1999.90;999.90;;;1.70;96.70;;;;;;5046281;28;20107;-88
2024/01/01 01:52:48;;;;;;;1999.90;999.90;;;1.80;96.90;;;;;;5039225;28;20123;-83
2024/01/01 01:55:15;;;;;;;1999.90;999.90;;;1.80;96.60;;;;;;5041228;28;20029;-85
2024/01/01 01:57:43;;;;;;;1999.90;999.90;;;1.80;96.50;;;;;;5041921;28;20036;-88
2024/01/01 02:00:10;;;;;;;1999.90;999.90;;;1.80;96.60;;;;;;5042445;28;20083;-84
2024/01/01 02:02:35;;;;;;;1999.90;999.90;;;1.90;96.50;;;;;;5044498;28;20037;-87
2024/01/01 02:05:03;;;;;;;1999.90;999.90;;;1.90;96.40;;;;;;5046366;28;20644;-87
2024/01/01 02:07:31;;;;;;;1999.90;999.90;;;2.00;96.40;;;;;;5037950;28;20052;-86
2024/01/01 02:09:57;;;;;;;1999.90;999.90;;;2.00;96.20;;;;;;5040935;28;20021;-86
2024/01/01 02:12:23;;;;;;;1999.90;999.90;;;2.00;96.00;;;;;;5038888;28;20033;-84
2024/01/01 02:14:50;;;;;;;1999.90;999.90;;;1.90;96.00;;;;;;5040092;28;20025;-87
2024/01/01 02:17:19;;;;;;;1999.90;999.90;;;1.90;96.00;;;;;;5040005;28;20041;-88
2024/01/01 02:19:46;;;;;;;1999.90;999.90;;;1.90;96.10;;;;;;5043103;28;20025;-85
2024/01/01 02:22:12;;;;;;;1999.90;999.90;;;1.90;96.10;;;;;;5042206;28;20029;-86
2024/01/01 02:24:38;;;;;;;1999.90;999.90;;;2.00;96.20;;;;;;5039767;28;20723;-85
2024/01/01 02:27:04;;;;;;;1999.90;999.90;;;2.10;96.10;;;;;;5041121;28;20117;-87
2024/01/01 02:29:30;;;;;;;1999.90;999.90;;;2.00;95.70;;;;;;5042527;28;20057;-87
2024/01/01 02:31:55;;;;;;;1999.90;999.90;;;2.00;95.80;;;;;;5044479;28;20052;-86
2024/01/01 02:34:22;;;;;;;1999.90;999.90;;;2.20;95.60;;;;;;5043222;28;20031;-83
2024/01/01 02:36:47;;;;;;;1999.90;999.90;;;2.30;95.10;;;;;;5042515;28;20086;-86
2024/01/01 02:39:13;;;;;;;1999.90;999.90;;;2.30;94.90;;;;;;5041981;28;20655;-86
2024/01/01 02:41:39;;;;;;;1999.90;999.90;;;2.40;94.50;;;;;;5044595;28;20095;-85
2024/01/01 02:44:07;;;;;;;1999.90;999.90;;;2.60;93.90;;;;;;5045327;28;20036;-85
2024/01/01 02:46:35;;;;;;;1999.90;999.90;;;2.70;93.40;;;;;;5044153;28;20036;-83
2024/01/01 02:49:02;;;;;;;1999.90;999.90;;;2.70;93.40;;;;;;5041011;28;20033;-84
2024/01/01 02:51:28;;;;;;;1999.90;999.90;;;2.70;93.50;;;;;;5040431;28;20438;-88
2024/01/01 02:53:56;;;;;;;1999.90;999.90;;;2.70;93.60;;;;;;5042246;28;20033;-86
2024/01/01 02:56:26;;;;;;;1999.90;999.90;;;2.80;93.70;;;;;;5047672;28;20040;-86
2024/01/01 02:58:53;;;;;;;1999.90;999.90;;;2.70;93.80;;;;;;5044970;28;20376;-87
2024/01/01 03:01:18;;;;;;;1999.90;999.90;;;2.80;93.80;;;;;;5042298;28;20037;-85
2024/01/01 03:03:44;;;;;;;1999.90;999.90;;;2.80;93.80;;;;;;5046868;28;20034;-87
2024/01/01 03:06:10;;;;;;;1999.90;999.90;;;2.80;93.90;;;;;;5043989;28;20017;-87
2024/01/01 03:08:41;;;;;;;1999.90;999.90;;;2.80;93.80;;;;;;5041924;28;20518;-88
2024/01/01 03:11:07;;;;;;;1999.90;999.90;;;2.80;93.70;;;;;;5046770;28;20053;-85
2024/01/01 03:13:35;;;;;;;1999.90;999.90;;;2.80;93.80;;;;;;5044145;28;20408;-83
2024/01/01 03:16:03;;;;;;;1999.90;999.90;;;2.90;93.50;;;;;;5043085;28;20599;-86
2024/01/01 03:18:30;;;;;;;1999.90;999.90;;;3.00;93.40;;;;;;5042552;28;20029;-86
2024/01/01 03:20:55;;;;;;;1999.90;999.90;;;3.10;93.00;;;;;;5047130;28;20258;-87
2024/01/01 03:23:22;;;;;;;1999.90;999.90;;;3.10;92.80;;;;;;5046596;28;20032;-89
2024/01/01 03:25:48;;;;;;;1999.90;999.90;;;3.20;92.80;;;;;;5047477;28;20035;-87
2024/01/01 03:28:15;;;;;;;1999.90;999.90;;;3.10;92.80;;;;;;5047324;28;20025;-84
2024/01/01 03:30:40;;;;;;;1999.90;999.90;;;3.20;92.60;;;;;;5047567;28;20017;-85
2024/01/01 03:33:06;;;;;;;1999.90;999.90;;;3.30;92.80;;;;;;5047240;28;20044;-83
2024/01/01 03:35:32;;;;;;;1999.90;999.90;;;3.40;92.10;;;;;;5044537;28;20551;-89
2024/01/01 03:37:58;;;;;;;1999.90;999.90;;;3.40;92.10;;;;;;5047995;28;20128;-87
2024/01/01 03:40:24;;;;;;;1999.90;999.90;;;3.40;92.10;;;;;;5047665;28;20040;-87
2024/01/01 03:42:52;;;;;;;1999.90;999.90;;;3.40;92.20;;;;;;5045848;28;20044;-87
2024/01/01 03:45:18;;;;;;;1999.90;999.90;;;3.40;92.40;;;;;;5042288;28;20115;-84
2024/01/01 03:47:44;;;;;;;1999.90;999.90;;;3.30;92.40;;;;;;5042647;28;20029;-88
2024/01/01 03:50:10;;;;;;;1999.90;999.90;;;3.30;92.50;;;;;;5048525;28;20082;-88
2024/01/01 03:52:36;;;;;;;1999.90;999.90;;;3.30;92.60;;;;;;5049716;28;20463;-84
2024/01/01 03:55:03;;;;;;;1999.90;999.90;;;3.30;92.50;;;;;;5046950;28;20108;-86
2024/01/01 03:57:33;;;;;;;1999.90;999.90;;;3.30;92.60;;;;;;5047078;28;20518;-87
2024/01/01 04:00:00;;;;;;;1999.90;999.90;;;3.30;92.60;;;;;;5047822;28;20033;-86
2024/01/01 04:02:26;;;;;;;1999.90;999.90;;;3.40;92.40;;;;;;5041075;28;20061;-87
2024/01/01 04:04:52;;;;;;;1999.90;999.90;;;3.50;92.00;;;;;;5048561;28;20479;-87
2024/01/01 04:07:18;;;;;;;1999.90;999.90;;;3.60;91.80;;;;;;5046663;28;20021;-88
2024/01/01 04:09:44;;;;;;;1999.90;999.90;;;3.60;91.70;;;;;;5031956;28;20036;-86
2024/01/01 04:12:10;;;;;;;1999.90;999.90;;;3.60;91.70;;;;;;5043879;28;20033;-88
2024/01/01 04:14:36;;;;;;;1999.90;999.90;;;3.70;91.40;;;;;;5045451;28;20053;-88
2024/01/01 04:17:03;;;;;;;1999.90;999.90;;;3.70;91.20;;;;;;5047556;28;20061;-84
2024/01/01 04:19:31;;;;;;;1999.90;999.90;;;3.70;91.40;;;;;;5045747;28;20033;-87
2024/01/01 04:22:00;;;;;;;1999.90;999.90;;;3.60;91.30;;;;;;5046739;28;20044;-88
2024/01/01 04:24:26;;;;;;;1999.90;999.90;;;3.50;91.50;;;;;;5042724;28;20182;-86
2024/01/01 04:26:51;;;;;;;1999.90;999.90;;;3.40;91.80;;;;;;5045273;28;20560;-87
2024/01/01 04:29:17;;;;;;;1999.90;999.90;;;3.20;92.00;;;;;;5040128;28;20049;-85
2024/01/01 04:31:45;;;;;;;1999.90;999.90;;;3.20;92.10;;;;;;5044712;28;20083;-87
2024/01/01 04:34:10;;;;;;;1999.90;999.90;;;3.10;92.10;;;;;;5043353;28;20045;-87
2024/01/01 04:36:38;;;;;;;1999.90;999.90;;;3.10;92.20;;;;;;5039834;28;20041;-89
2024/01/01 04:39:04;;;;;;;1999.90;999.90;;;3.20;92.20;;;;;;5043320;28;21100;-87
2024/01/01 04:41:30;;;;;;;1999.90;999.90;;;3.10;92.20;;;;;;5046586;28;20037;-87
2024/01/01 04:43:55;;;;;;;1999.90;999.90;;;3.10;92.40;;;;;;5041758;28;20733;-88
2024/01/01 04:46:21;;;;;;;1999.90;999.90;;;3.30;92.10;;;;;;5043377;28;20059;-85
2024/01/01 04:48:47;;;;;;;1999.90;999.90;;;3.30;92.10;;;;;;5040316;28;20144;-87
2024/01/01 04:51:13;;;;;;;1999.90;999.90;;;3.30;92.00;;;;;;5045160;28;20542;-85
2024/01/01 04:53:38;;;;;;;1999.90;999.90;;;3.30;92.10;;;;;;5042516;28;20033;-87
2024/01/01 04:56:05;;;;;;;1999.90;999.90;;;3.30;92.00;;;;;;5041997;28;20041;-88
2024/01/01 04:58:32;;;;;;;1999.90;999.90;;;3.40;92.10;;;;;;5041195;28;20052;-86
2024/01/01 05:00:57;;;;;;;1999.90;999.90;;;3.40;91.80;;;;;;5044728;28;20530;-82
2024/01/01 05:03:24;;;;;;;1999.90;999.90;;;3.40;91.50;;;;;;5040735;28;20514;-86
2024/01/01 05:05:49;;;;;;;1999.90;999.90;;;3.40;91.80;;;;;;5044652;28;20760;-89
2024/01/01 05:08:15;;;;;;;1999.90;999.90;;;3.50;91.70;;;;;;5044338;28;20082;-88
2024/01/01 05:10:41;;;;;;;1999.90;999.90;;;3.50;91.70;;;;;;5040357;28;20123;-86
2024/01/01 05:13:07;;;;;;;1999.90;999.90;;;3.50;91.60;;;;;;5043542;28;20406;-88
2024/01/01 05:15:33;;;;;;;1999.90;999.90;;;3.60;91.40;;;;;;5040716;28;20033;-88
2024/01/01 05:17:58;;;;;;;1999.90;999.90;;;3.50;91.30;;;;;;5042206;28;20041;-85
2024/01/01 05:20:25;;;;;;;1999.90;999.90;;;3.40;91.50;;;;;;5042072;28;20033;-85
2024/01/01 05:22:51;;;;;;;1999.90;999.90;;;3.40;91.70;;;;;;5042455;28;20502;-90
2024/01/01 05:25:18;;;;;;;1999.90;999.90;;;3.30;91.60;;;;;;5041743;28;20045;-87
2024/01/01 05:27:44;;;;;;;1999.90;999.90;;;3.30;91.50;;;;;;5040483;28;20028;-87
2024/01/01 05:30:10;;;;;;;1999.90;999.90;;;3.30;91.90;;;;;;5043468;28;20162;-85
2024/01/01 05:32:35;;;;;;;1999.90;999.90;;;3.30;91.70;;;;;;5043558;28;20037;-88
2024/01/01 05:35:01;;;;;;;1999.90;999.90;;;3.30;91.90;;;;;;5045684;28;20033;-84
2024/01/01 05:37:27;;;;;;;1999.90;999.90;;;3.40;91.80;;;;;;5039613;28;20064;-85
2024/01/01 05:39:52;;;;;;;1999.90;999.90;;;3.30;92.30;;;;;;5036952;28;20059;-88
2024/01/01 05:42:18;;;;;;;1999.90;999.90;;;3.30;92.00;;;;;;5041238;28;20064;-88
2024/01/01 05:44:44;;;;;;;1999.90;999.90;;;3.30;92.10;;;;;;5040192;28;20082;-87
2024/01/01 05:47:12;;;;;;;1999.90;999.90;;;3.30;92.10;;;;;;5045164;28;20724;-87
2024/01/01 05:49:37;;;;;;;1999.90;999.90;;;3.30;92.10;;;;;;5046700;28;20065;-86
2024/01/01 05:52:03;;;;;;;1999.90;999.90;;;3.30;92.10;;;;;;5039358;28;20330;-85
2024/01/01 05:54:31;;;;;;;1999.90;999.90;;;3.30;92.00;;;;;;5044106;28;20033;-88
2024/01/01 05:56:57;;;;;;;1999.90;999.90;;;3.40;91.70;;;;;;5056238;28;20044;-86
2024/01/01 05:59:22;;;;;;;1999.90;999.90;;;3.40;91.60;;;;;;5043981;28;20033;-89
2024/01/01 06:01:48;;;;;;;1999.90;999.90;;;3.40;91.60;;;;;;5043620;28;20549;-86
2024/01/01 06:04:14;;;;;;;1999.90;999.90;;;3.50;91.50;;;;;;5039402;28;20423;-87
2024/01/01 06:06:39;;;;;;;1999.90;999.90;;;3.50;91.40;;;;;;5045705;28;20040;-84
2024/01/01 06:09:05;;;;;;;1999.90;999.90;;;3.60;91.20;;;;;;5044685;28;20125;-86
2024/01/01 06:11:33;;;;;;;1999.90;999.90;;;3.60;91.30;;;;;;5042291;28;20029;-89
2024/01/01 06:13:59;;;;;;;1999.90;999.90;;;3.60;91.70;;;;;;5039526;28;20474;-85
2024/01/01 06:16:25;;;;;;;1999.90;999.90;;;3.60;91.90;;;;;;5048036;28;20025;-89
2024/01/01 06:18:51;;;;;;;1999.90;999.90;;;3.60;91.90;;;;;;5045416;28;20111;-89
2024/01/01 06:21:17;;;;;;;1999.90;999.90;;;3.60;91.80;;;;;;5051398;28;20021;-88
2024/01/01 06:23:46;;;;;;;1999.90;999.90;;;3.60;91.60;;;;;;5025475;28;20174;-86
2024/01/01 06:26:13;;;;;;;1999.90;999.90;;;3.60;91.70;;;;;;5048190;28;20407;-88
2024/01/01 06:28:39;;;;;;;1999.90;999.90;;;3.60;91.70;;;;;;5045113;28;20029;-87
2024/01/01 06:31:04;;;;;;;1999.90;999.90;;;3.60;91.60;;;;;;5045746;28;20048;-86
2024/01/01 06:33:31;;;;;;;1999.90;999.90;;;3.60;91.60;;;;;;5044906;28;20171;-86
2024/01/01 06:35:56;;;;;;;1999.90;999.90;;;3.60;91.40;;;;;;5045444;28;20041;-88
2024/01/01 06:38:22;;;;;;;1999.90;999.90;;;3.60;91.20;;;;;;5044916;28;20414;-84
2024/01/01 06:40:47;;;;;;;1999.90;999.90;;;3.60;90.90;;;;;;5048500;28;20520;-86
2024/01/01 06:43:19;;;;;;;1999.90;999.90;;;3.60;90.80;;;;;;5044875;28;20052;-84
2024/01/01 06:45:45;;;;;;;1999.90;999.90;;;3.50;91.10;;;;;;5042898;28;20036;-85
2024/01/01 06:48:11;;;;;;;1999.90;999.90;;;3.50;91.30;;;;;;5041170;28;20037;-87
2024/01/01 06:50:37;;;;;;;1999.90;999.90;;;3.40;91.50;;;;;;5042576;28;20115;-85
2024/01/01 06:53:03;;;;;;;1999.90;999.90;;;3.40;91.70;;;;;;5043544;28;20029;-86
2024/01/01 06:55:30;;;;;;;1999.90;999.90;;;3.40;91.70;;;;;;5040185;28;20405;-84
2024/01/01 06:57:58;;;;;;;1999.90;999.90;;;3.20;91.90;;;;;;5043264;28;20094;-87
2024/01/01 07:00:23;;;;;;;1999.90;999.90;;;3.20;92.20;;;;;;5040194;28;20033;-83
2024/01/01 07:02:50;;;;;;;1999.90;999.90;;;3.30;92.20;;;;;;5027085;28;20037;-87
2024/01/01 07:05:16;;;;;;;1999.90;999.90;;;3.30;92.20;;;;;;5042183;28;20033;-83
2024/01/01 07:07:42;;;;;;;1999.90;999.90;;;3.20;92.40;;;;;;5043883;28;20510;-86
2024/01/01 07:10:07;;;;;;;1999.90;999.90;;;3.10;92.60;;;;;;5041265;28;20124;-85
2024/01/01 07:12:33;;;;;;;1999.90;999.90;;;3.10;92.70;;;;;;5040081;28;20060;-81
2024/01/01 07:15:01;;;;;;;1999.90;999.90;;;3.10;93.00;;;;;;5042929;28;20048;-84
2024/01/01 07:17:27;;;;;;;1999.90;999.90;;;2.90;93.10;;;;;;5040199;28;20071;-85
2024/01/01 07:19:53;;;;;;;1999.90;999.90;;;3.00;93.20;;;;;;5042779;28;20029;-84
2024/01/01 07:22:19;;;;;;;1999.90;999.90;;;2.90;93.10;;;;;;5039109;28;20041;-88
2024/01/01 07:24:45;;;;;;;1999.90;999.90;;;2.90;93.20;;;;;;5020277;28;20854;-87
2024/01/01 07:27:11;;;;;;;1999.90;999.90;;;2.80;93.20;;;;;;5039177;28;20350;-84
2024/01/01 07:29:37;;;;;;;1999.90;999.90;;;2.80;93.20;;;;;;5055365;28;20302;-84
2024/01/01 07:32:04;;;;;;;1999.90;999.90;;;2.70;93.30;;;;;;5040856;28;20037;-87
2024/01/01 07:34:29;;;;;;;1999.90;999.90;;;2.80;93.50;;;;;;5040409;28;20033;-87
2024/01/01 07:36:57;;;;;;;1999.90;999.90;;;2.80;93.60;;;;;;5024334;28;20025;-85
2024/01/01 07:39:24;;;;;;;1999.90;999.90;;;2.90;93.60;;;;;;5040328;28;20095;-87
2024/01/01 07:41:51;;;;;;;1999.90;999.90;;;3.00;93.60;;;;;;5040391;28;20509;-85
2024/01/01 07:44:16;;;;;;;1999.90;999.90;;;3.00;93.60;;;;;;5042918;28;20342;-84
2024/01/01 07:46:42;;;;;;;1999.90;999.90;;;3.10;93.70;;;;;;5040231;28;20479;-87
2024/01/01 07:49:08;;;;;;;1999.90;999.90;;;3.20;93.60;;;;;;5040027;28;20497;-86
2024/01/01 07:51:35;;;;;;;1999.90;999.90;;;3.40;93.50;;;;;;5035721;28;20049;-84
2024/01/01 07:54:00;;;;;;;1999.90;999.90;;;3.50;93.10;;;;;;5023280;28;20036;-87
2024/01/01 07:56:27;;;;;;;1999.90;999.90;;;3.50;92.90;;;;;;5042385;28;20033;-86
2024/01/01 07:58:53;;;;;;;1999.90;999.90;;;3.50;92.70;;;;;;5039833;28;20041;-85
2024/01/01 08:01:19;;;;;;;1999.90;999.90;;;3.50;92.30;;;;;;5039596;28;20067;-87
2024/01/01 08:03:47;;;;;;;1999.90;999.90;;;3.50;92.50;;;;;;5039626;28;20057;-86
2024/01/01 08:06:13;;;;;;;1999.90;999.90;;;3.60;92.30;;;;;;5040059;28;20028;-87
2024/01/01 08:08:39;;;;;;;1999.90;999.90;;;3.80;92.20;;;;;;5046338;28;20402;-86
2024/01/01 08:11:09;;;;;;;1999.90;999.90;;;3.70;92.10;;;;;;5046807;28;20033;-89
2024/01/01 08:13:36;;;;;;;1999.90;999.90;;;3.80;92.20;;;;;;5043314;28;20025;-87
2024/01/01 08:16:02;;;;;;;1999.90;999.90;;;3.80;92.00;;;;;;5043252;28;20041;-88
2024/01/01 08:18:28;;;;;;;1999.90;999.90;;;3.80;92.00;;;;;;5045372;28;20033;-88
2024/01/01 08:20:54;;;;;;;1999.90;999.90;;;3.90;91.70;;;;;;5043741;28;20039;-82
2024/01/01 08:23:20;;;;;;;1999.90;999.90;;;3.80;91.70;;;;;;5043655;28;20041;-87
2024/01/01 08:25:46;;;;;;;1999.90;999.90;;;3.80;91.70;;;;;;5043161;28;20037;-86
2024/01/01 08:28:11;;;;;;;1999.90;999.90;;;3.90;91.50;;;;;;5045803;28;20553;-86
2024/01/01 08:30:38;;;;;;;1999.90;999.90;;;4.10;91.50;;;;;;5042456;28;20529;-88
2024/01/01 08:33:05;;;;;;;1999.90;999.90;;;4.10;91.20;;;;;;5042575;28;20116;-86
2024/01/01 08:35:31;;;;;;;1999.90;999.90;;;4.20;90.90;;;;;;5042522;28;20100;-87
2024/01/01 08:37:57;;;;;;;1999.90;999.90;;;4.20;91.10;;;;;;5026492;28;20160;-89
2024/01/01 08:40:23;;;;;;;1999.90;999.90;;;4.20;90.80;;;;;;5043104;28;20547;-89
2024/01/01 08:42:50;;;;;;;1999.90;999.90;;;4.30;91.00;;;;;;5045097;28;20726;-87
2024/01/01 08:45:19;;;;;;;1999.90;999.90;;;4.30;90.90;;;;;;5041030;28;20290;-87
2024/01/01 08:47:45;;;;;;;1999.90;999.90;;;4.40;90.70;;;;;;5043874;28;20029;-88
2024/01/01 08:50:12;;;;;;;1999.90;999.90;;;4.30;90.80;;;;;;5042016;28;20044;-88
2024/01/01 08:52:37;;;;;;;1999.90;999.90;;;4.10;90.70;;;;;;5039292;28;20056;-89
2024/01/01 08:55:04;;;;;;;1999.90;999.90;;;4.10;91.20;;;;;;5041899;28;20033;-89
2024/01/01 08:57:30;;;;;;;1999.90;999.90;;;4.10;91.90;;;;;;5042728;28;20074;-89
2024/01/01 08:59:56;;;;;;;1999.90;999.90;;;4.00;93.10;;;;;;5044921;28;20041;-88
2024/01/01 09:02:21;;;;;;;1999.90;999.90;;;3.90;93.70;;;;;;5044133;28;20044;-88
2024/01/01 09:04:47;;;;;;;1999.90;999.90;;;3.80;94.70;;;;;;5040643;28;20040;-84
2024/01/01 09:07:13;;;;;;;1999.90;999.90;;;3.80;95.50;;;;;;5044808;28;20087;-91
2024/01/01 09:09:39;;;;;;;1999.90;999.90;;;3.70;95.60;;;;;;5043498;28;20033;-90
2024/01/01 09:12:05;;;;;;;1999.90;999.90;;;3.70;96.10;;;;;;5038674;28;20033;-90
2024/01/01 09:14:30;;;;;;;1999.90;999.90;;;3.70;95.40;;;;;;5037481;28;20065;-88
2024/01/01 09:16:56;;;;;;;1999.90;999.90;;;3.60;96.00;;;;;;5042994;28;20567;-87
2024/01/01 09:19:22;;;;;;;1999.90;999.90;;;3.60;95.80;;;;;;5029400;28;20069;-91
2024/01/01 09:21:47;;;;;;;1999.90;999.90;;;3.60;96.10;;;;;;5024894;28;20124;-91
2024/01/01 09:24:13;;;;;;;1999.90;999.90;;;3.70;96.60;;;;;;5053321;28;20400;-90
2024/01/01 09:26:39;;;;;;;1999.90;999.90;;;3.70;96.20;;;;;;5039894;28;20033;-92
2024/01/01 09:29:05;;;;;;;1999.90;999.90;;;3.70;96.20;;;;;;5042541;28;20029;-92
2024/01/01 09:31:32;;;;;;;1999.90;999.90;;;3.80;96.00;;;;;;5037077;28;20799;-90
2024/01/01 09:34:00;;;;;;;1999.90;999.90;;;3.80;95.70;;;;;;5042346;28;20025;-91
2024/01/01 09:36:30;;;;;;;1999.90;999.90;;;3.80;96.00;;;;;;5039233;28;20029;-91
2024/01/01 09:38:56;;;;;;;1999.90;999.90;;;3.80;95.20;;;;;;5040615;28;20071;-90
2024/01/01 09:41:27;;;;;;;1999.90;999.90;;;3.80;95.50;;;;;;5030022;28;20032;-89
2024/01/01 09:43:55;;;;;;;1999.90;999.90;;;3.80;95.30;;;;;;5040410;28;20048;-90
2024/01/01 09:46:22;;;;;;;1999.90;999.90;;;4.00;95.50;;;;;;5035103;28;20020;-85
2024/01/01 09:48:48;;;;;;;1999.90;999.90;;;4.20;94.20;;;;;;5031407;28;20024;-83
2024/01/01 09:51:14;;;;;;;1999.90;999.90;;;4.40;94.50;;;;;;5028571;28;20044;-85
2024/01/01 09:53:43;;;;;;;1999.90;999.90;;;4.50;93.50;;;;;;5029484;28;20033;-80
2024/01/01 09:56:09;;;;;;;1999.90;999.90;;;4.50;94.90;;;;;;5039112;28;20111;-83
2024/01/01 09:58:44;;;;;;;1999.90;999.90;;;4.70;94.00;;;;;;5040039;28;20642;-81
2024/01/01 10:01:12;;;;;;;1999.90;999.90;;;4.70;92.20;;;;;;5071058;28;20136;-85
2024/01/01 10:03:38;;;;;;;1999.90;999.90;;;4.80;92.60;;;;;;5042383;28;20064;-79
2024/01/01 10:06:09;;;;;;;1999.90;999.90;;;4.80;92.50;;;;;;5045246;28;20042;-84
2024/01/01 10:08:35;;;;;;;1999.90;999.90;;;4.90;92.60;;;;;;5038058;28;20034;-80
2024/01/01 10:11:20;;;;;;;1999.90;999.90;;;5.00;93.40;;;;;;5044154;28;20036;-84
2024/01/01 10:13:47;;;;;;;1999.90;999.90;;;5.00;91.60;;;;;;5059184;28;20108;-77
2024/01/01 10:16:25;;;;;;;1999.90;999.90;;;5.00;92.10;;;;;;5039419;28;20029;-77
2024/01/01 10:18:57;;;;;;;1999.90;999.90;;;5.00;90.10;;;;;;5035357;28;20060;-83
2024/01/01 10:21:31;;;;;;;1999.90;999.90;;;5.10;90.50;;;;;;5038671;28;20033;-78
2024/01/01 10:24:18;;;;;;;1999.90;999.90;;;5.30;87.80;;;;;;5033219;28;20586;-81
2024/01/01 10:26:46;;;;;;;1999.90;999.90;;;5.40;85.40;;;;;;5034362;28;20041;-83
2024/01/01 10:29:15;;;;;;;1999.90;999.90;;;5.50;84.00;;;;;;5038884;28;20030;-79
2024/01/01 10:31:45;;;;;;;1999.90;999.90;;;5.60;83.80;;;;;;5053160;28;20060;-79
2024/01/01 10:34:15;;;;;;;1999.90;999.90;;;5.80;83.70;;;;;;5041899;28;20104;-79
2024/01/01 10:36:42;;;;;;;1999.90;999.90;;;5.80;82.10;;;;;;5042851;28;20052;-77
2024/01/01 10:39:12;;;;;;;1999.90;999.90;;;5.90;82.10;;;;;;5038753;28;20044;-77
2024/01/01 10:41:39;;;;;;;1999.90;999.90;;;5.90;81.30;;;;;;5038008;28;20029;-86
2024/01/01 10:44:09;;;;;;;1999.90;999.90;;;5.90;80.50;;;;;;5039190;28;20040;-75
2024/01/01 10:46:39;;;;;;;1999.90;999.90;;;6.10;81.40;;;;;;5042363;28;20055;-84
2024/01/01 10:49:12;;;;;;;1999.90;999.90;;;6.20;80.80;;;;;;5039464;28;20108;-79
2024/01/01 10:51:46;;;;;;;1999.90;999.90;;;6.00;79.20;;;;;;5045223;28;20055;-82
2024/01/01 10:54:59;;;;;;;1999.90;999.90;;;6.00;79.40;;;;;;5032435;28;20026;-81
2024/01/01 10:57:49;;;;;;;1999.90;999.90;;;6.30;81.20;;;;;;5021173;28;20014;-79
2024/01/01 11:01:02;;;;;;;1999.90;999.90;;;6.40;80.40;;;;;;5018638;28;20040;-79
2024/01/01 11:03:31;;;;;;;1999.90;999.90;;;6.00;79.30;;;;;;5017187;28;20098;-78
2024/01/01 11:05:58;;;;;;;1999.90;999.90;;;6.00;80.40;;;;;;5041317;28;20041;-81
2024/01/01 11:08:27;;;;;;;1999.90;999.90;;;5.90;78.90;;;;;;5040028;28;20522;-79
2024/01/01 11:10:55;;;;;;;1999.90;999.90;;;6.00;79.80;;;;;;5037981;28;20038;-80
2024/01/01 11:13:26;;;;;;;1999.90;999.90;;;6.10;80.10;;;;;;5041504;28;20839;-80
2024/01/01 11:16:06;;;;;;;1999.90;999.90;;;6.00;80.40;;;;;;5036996;28;20071;-79
2024/01/01 11:18:39;;;;;;;1999.90;999.90;;;6.10;80.60;;;;;;5040109;28;20364;-78
2024/01/01 11:21:06;;;;;;;1999.90;999.90;;;6.10;80.00;;;;;;5039218;28;20025;-77
2024/01/01 11:23:45;;;;;;;1999.90;999.90;;;6.10;80.90;;;;;;5039471;28;20040;-77
2024/01/01 11:26:23;;;;;;;1999.90;999.90;;;6.00;79.90;;;;;;5041615;28;20025;-77
2024/01/01 11:29:03;;;;;;;1999.90;999.90;;;5.90;80.30;;;;;;5033090;28;20064;-77
2024/01/01 11:31:30;;;;;;;1999.90;999.90;;;5.80;80.40;;;;;;5037057;28;20025;-75
2024/01/01 11:34:03;;;;;;;1999.90;999.90;;;5.80;80.30;;;;;;5039610;28;20040;-84
2024/01/01 11:36:29;;;;;;;1999.90;999.90;;;5.70;80.60;;;;;;5028089;28;20033;-80
2024/01/01 11:38:56;;;;;;;1999.90;999.90;;;5.70;80.70;;;;;;5025588;28;20036;-76
2024/01/01 11:41:33;;;;;;;1999.90;999.90;;;5.80;80.40;;;;;;5038713;28;20055;-79
2024/01/01 11:44:12;;;;;;;1999.90;999.90;;;5.90;80.00;;;;;;5042945;28;20116;-78
2024/01/01 11:46:38;;;;;;;1999.90;999.90;;;6.00;80.00;;;;;;5042582;28;20083;-74
2024/01/01 11:49:07;;;;;;;1999.90;999.90;;;6.20;80.30;;;;;;5042237;28;20400;-82
2024/01/01 11:51:51;;;;;;;1999.90;999.90;;;6.30;80.50;;;;;;5041950;28;20049;-80
2024/01/01 11:54:20;;;;;;;1999.90;999.90;;;6.40;80.20;;;;;;5041962;28;20767;-80
2024/01/01 11:56:49;;;;;;;1999.90;999.90;;;6.30;79.20;;;;;;5047937;28;20083;-85
2024/01/01 11:59:16;;;;;;;1999.90;999.90;;;6.20;78.30;;;;;;5042478;28;20116;-79
2024/01/01 12:01:43;;;;;;;1999.90;999.90;;;6.30;78.60;;;;;;5039890;28;20120;-79
2024/01/01 12:04:10;;;;;;;1999.90;999.90;;;6.30;79.10;;;;;;5043110;28;20102;-72
2024/01/01 12:06:36;;;;;;;1999.90;999.90;;;6.30;78.60;;;;;;5042183;28;20710;-81
2024/01/01 12:09:08;;;;;;;1999.90;999.90;;;6.30;78.50;;;;;;5041987;28;20033;-79